createdAt,value
2022-08-11T00:01:05.315Z,0.38
2022-08-11T00:03:43.163Z,0.68
2022-08-11T00:06:11.431Z,0.60
2022-08-11T00:08:38.625Z,1.20
2022-08-11T00:11:08.433Z,0.70
2022-08-11T00:13:37.389Z,0.70
2022-08-11T00:16:11.104Z,0.50
2022-08-11T00:18:41.424Z,0.40
2022-08-11T00:21:08.383Z,0.40
2022-08-11T00:23:41.615Z,0.60
2022-08-11T00:26:08.835Z,0.50
2022-08-11T00:28:36.236Z,0.30
2022-08-11T00:31:11.537Z,0.63
2022-08-11T00:33:44.694Z,0.52
2022-08-11T00:36:16.212Z,0.32
2022-08-11T00:38:45.631Z,0.75
2022-08-11T00:41:18.249Z,0.40
2022-08-11T00:44:07.813Z,0.60
2022-08-11T00:46:52.456Z,0.32
2022-08-11T00:49:54.347Z,0.50
2022-08-11T00:52:32.923Z,0.30
2022-08-11T00:55:03.556Z,0.38
2022-08-11T00:57:37.780Z,0.40
2022-08-11T01:00:19.383Z,0.50
2022-08-11T01:02:48.695Z,0.43
2022-08-11T01:05:36.839Z,0.30
2022-08-11T01:08:37.463Z,0.35
2022-08-11T01:11:22.000Z,0.38
2022-08-11T01:14:34.058Z,0.45
2022-08-11T01:17:22.612Z,0.28
2022-08-11T01:20:47.009Z,0.50
2022-08-11T01:22:59.532Z,0.40
2022-08-11T01:25:57.445Z,0.50
2022-08-11T01:28:53.544Z,0.57
2022-08-11T01:31:38.331Z,0.38
2022-08-11T01:34:27.879Z,0.63
2022-08-11T01:37:06.324Z,0.40
2022-08-11T01:40:11.550Z,0.57
2022-08-11T01:43:25.060Z,0.57
2022-08-11T01:46:12.540Z,0.40
2022-08-11T01:48:48.136Z,0.30
2022-08-11T01:51:58.419Z,0.40
2022-08-11T01:54:35.623Z,0.22
2022-08-11T01:57:20.845Z,0.75
2022-08-11T02:00:07.495Z,0.47
2022-08-11T02:02:48.534Z,0.30
2022-08-11T02:05:28.474Z,0.45
2022-08-11T02:08:02.995Z,0.25
2022-08-11T02:11:05.480Z,0.30
2022-08-11T02:13:53.731Z,0.25
2022-08-11T02:16:46.660Z,0.40
2022-08-11T02:19:59.837Z,0.22
2022-08-11T02:22:58.299Z,0.40
2022-08-11T02:25:56.230Z,0.32
2022-08-11T02:28:46.617Z,0.40
2022-08-11T02:32:25.103Z,0.40
2022-08-11T02:35:23.547Z,0.55
2022-08-11T02:38:18.968Z,0.40
2022-08-11T02:41:34.386Z,0.40
2022-08-11T02:44:59.471Z,0.35
2022-08-11T02:47:38.224Z,0.40
2022-08-11T02:50:23.532Z,0.40
2022-08-11T02:53:17.493Z,0.20
2022-08-11T02:56:28.358Z,0.35
2022-08-11T02:59:25.461Z,0.17
2022-08-11T03:02:04.596Z,0.65
2022-08-11T03:04:57.534Z,0.20
2022-08-11T03:08:01.263Z,0.30
2022-08-11T03:10:33.809Z,0.30
2022-08-11T03:13:43.967Z,0.50
2022-08-11T03:16:38.558Z,0.47
2022-08-11T03:19:23.510Z,0.47
2022-08-11T03:22:03.647Z,0.38
2022-08-11T03:24:51.441Z,0.20
2022-08-11T03:27:43.034Z,0.43
2022-08-11T03:30:26.587Z,0.35
2022-08-11T03:33:33.753Z,0.40
2022-08-11T03:36:20.285Z,0.30
2022-08-11T03:39:06.107Z,0.28
2022-08-11T03:42:03.368Z,0.40
2022-08-11T03:45:05.420Z,0.30
2022-08-11T03:47:37.812Z,0.82
2022-08-11T03:50:48.955Z,0.30
2022-08-11T03:53:55.937Z,0.30
2022-08-11T03:56:44.069Z,0.40
2022-08-11T03:59:43.407Z,0.35
2022-08-11T04:02:33.578Z,0.30
2022-08-11T04:05:07.389Z,0.60
2022-08-11T04:07:58.332Z,0.50
2022-08-11T04:11:01.288Z,0.93
2022-08-11T04:13:58.138Z,1.00
2022-08-11T04:16:44.346Z,0.50
2022-08-11T04:19:40.374Z,0.60
2022-08-11T04:22:42.015Z,0.28
2022-08-11T04:25:21.051Z,0.50
2022-08-11T04:28:04.606Z,0.43
2022-08-11T04:31:10.028Z,0.47
2022-08-11T04:33:56.566Z,0.45
2022-08-11T04:37:30.490Z,0.45
2022-08-11T04:40:36.887Z,0.40
2022-08-11T04:43:31.880Z,0.60
2022-08-11T04:46:37.508Z,0.38
2022-08-11T04:49:44.205Z,1.20
2022-08-11T04:52:52.575Z,0.63
2022-08-11T04:56:08.535Z,0.40
2022-08-11T04:59:24.510Z,0.60
2022-08-11T05:02:26.589Z,0.32
2022-08-11T05:05:35.175Z,1.08
2022-08-11T05:08:24.202Z,0.57
2022-08-11T05:11:24.789Z,0.50
2022-08-11T05:14:19.901Z,0.80
2022-08-11T05:17:16.572Z,0.20
2022-08-11T05:20:05.990Z,0.38
2022-08-11T05:23:06.540Z,0.57
2022-08-11T05:26:43.960Z,0.30
2022-08-11T05:29:23.865Z,0.30
2022-08-11T05:32:17.737Z,0.32
2022-08-11T05:34:57.053Z,0.50
2022-08-11T05:37:37.133Z,0.65
2022-08-11T05:40:28.208Z,0.70
2022-08-11T05:43:31.198Z,0.30
2022-08-11T05:46:19.605Z,0.20
2022-08-11T05:49:05.519Z,0.30
2022-08-11T05:51:55.811Z,0.35
2022-08-11T05:54:50.587Z,0.73
2022-08-11T05:57:49.576Z,0.80
2022-08-11T06:00:14.522Z,0.30
2022-08-11T06:02:55.268Z,0.80
2022-08-11T06:05:22.939Z,0.82
2022-08-11T06:07:55.692Z,0.45
2022-08-11T06:10:30.665Z,0.60
2022-08-11T06:12:58.316Z,0.40
2022-08-11T06:15:25.834Z,0.52
2022-08-11T06:17:53.960Z,0.57
2022-08-11T06:20:21.915Z,0.85
2022-08-11T06:22:57.408Z,0.30
2022-08-11T06:25:31.411Z,0.50
2022-08-11T06:27:58.686Z,0.85
2022-08-11T06:30:35.038Z,0.93
2022-08-11T06:33:04.318Z,0.90
2022-08-11T06:35:57.231Z,0.60
2022-08-11T06:38:38.073Z,0.50
2022-08-11T06:41:32.513Z,0.40
2022-08-11T06:44:14.155Z,0.38
2022-08-11T06:46:41.752Z,0.50
2022-08-11T06:49:30.485Z,0.50
2022-08-11T06:52:32.141Z,0.50
2022-08-11T06:55:06.530Z,0.30
2022-08-11T06:57:57.724Z,0.40
2022-08-11T07:00:28.771Z,0.40
2022-08-11T07:03:11.451Z,0.70
2022-08-11T07:05:37.861Z,0.45
2022-08-11T07:08:35.764Z,0.30
2022-08-11T07:11:45.914Z,0.47
2022-08-11T07:14:38.525Z,0.63
2022-08-11T07:17:10.619Z,0.70
2022-08-11T07:19:57.281Z,0.90
2022-08-11T07:22:44.670Z,0.68
2022-08-11T07:25:33.976Z,1.05
2022-08-11T07:28:23.547Z,0.80
2022-08-11T07:30:58.451Z,0.40
2022-08-11T07:34:07.959Z,1.77
2022-08-11T07:36:38.728Z,0.60
2022-08-11T07:39:12.705Z,0.70
2022-08-11T07:41:39.571Z,0.55
2022-08-11T07:44:09.734Z,0.70
2022-08-11T07:47:01.123Z,1.00
2022-08-11T07:49:49.786Z,0.90
2022-08-11T07:52:33.815Z,0.40
2022-08-11T07:58:38.768Z,0.65
2022-08-11T08:01:37.011Z,0.63
2022-08-11T08:04:25.035Z,0.77
2022-08-11T08:07:11.319Z,0.52
2022-08-11T08:09:57.679Z,0.60
2022-08-11T08:12:44.005Z,0.65
2022-08-11T08:15:30.996Z,0.90
2022-08-11T08:18:09.350Z,0.82
2022-08-11T08:20:49.834Z,0.77
2022-08-11T08:23:18.340Z,0.50
2022-08-11T08:25:45.957Z,0.65
2022-08-11T08:28:17.706Z,0.50
2022-08-11T08:30:47.835Z,1.00
2022-08-11T08:33:26.415Z,0.43
2022-08-11T08:36:11.829Z,0.80
2022-08-11T08:38:41.053Z,0.95
2022-08-11T08:41:08.893Z,0.70
2022-08-11T08:43:48.610Z,0.80
2022-08-11T08:46:20.705Z,1.65
2022-08-11T08:48:48.274Z,1.00
2022-08-11T08:51:54.681Z,0.80
2022-08-11T08:54:29.607Z,1.10
2022-08-11T08:56:57.254Z,0.88
2022-08-11T08:59:26.994Z,1.10
2022-08-11T09:02:13.916Z,0.68
2022-08-11T09:04:42.657Z,0.77
2022-08-11T09:07:15.439Z,1.02
2022-08-11T09:09:48.197Z,0.73
2022-08-11T09:12:17.346Z,0.70
2022-08-11T09:15:05.519Z,1.15
2022-08-11T09:17:40.436Z,0.80
2022-08-11T09:20:11.302Z,0.90
2022-08-11T09:26:09.997Z,1.02
2022-08-11T09:28:36.988Z,0.93
2022-08-11T09:31:05.303Z,0.57
2022-08-11T09:33:32.976Z,1.25
2022-08-11T09:36:20.896Z,1.10
2022-08-11T09:39:06.382Z,0.82
2022-08-11T09:42:00.757Z,0.90
2022-08-11T09:44:40.571Z,0.85
2022-08-11T09:47:15.414Z,0.80
2022-08-11T09:49:45.931Z,0.95
2022-08-11T09:52:14.495Z,0.90
2022-08-11T09:54:42.730Z,0.57
2022-08-11T09:57:36.378Z,1.17
2022-08-11T10:00:12.774Z,1.00
2022-08-11T10:02:47.280Z,0.80
2022-08-11T10:05:35.818Z,1.15
2022-08-11T10:08:03.054Z,0.90
2022-08-11T10:10:32.485Z,0.90
2022-08-11T10:13:05.330Z,0.85
2022-08-11T10:16:02.348Z,0.60
2022-08-11T10:18:51.537Z,0.90
2022-08-11T10:21:29.543Z,0.57
2022-08-11T10:24:17.779Z,0.85
2022-08-11T10:26:55.224Z,1.00
2022-08-11T10:29:45.419Z,1.00
2022-08-11T10:32:49.308Z,1.10
2022-08-11T10:35:26.216Z,0.75
2022-08-11T10:38:06.550Z,0.85
2022-08-11T10:40:38.669Z,0.88
2022-08-11T10:43:13.380Z,0.90
2022-08-11T10:46:04.083Z,1.10
2022-08-11T10:48:36.390Z,0.80
2022-08-11T10:51:13.896Z,0.90
2022-08-11T10:54:17.898Z,0.70
2022-08-11T10:57:03.284Z,0.60
2022-08-11T10:59:30.337Z,0.88
2022-08-11T11:01:59.032Z,0.93
2022-08-11T11:04:50.763Z,0.90
2022-08-11T11:07:24.119Z,0.90
2022-08-11T11:09:56.093Z,0.70
2022-08-11T11:12:51.884Z,1.00
2022-08-11T11:15:39.553Z,0.85
2022-08-11T11:18:14.513Z,1.13
2022-08-11T11:20:47.332Z,1.00
2022-08-11T11:23:40.645Z,1.30
2022-08-11T11:26:27.163Z,1.48
2022-08-11T11:29:44.914Z,0.88
2022-08-11T11:32:21.585Z,1.00
2022-08-11T11:35:06.614Z,0.95
2022-08-11T11:37:35.623Z,0.75
2022-08-11T11:40:10.955Z,0.85
2022-08-11T11:42:40.165Z,1.02
2022-08-11T11:45:08.916Z,0.90
2022-08-11T11:47:37.559Z,1.23
2022-08-11T11:50:07.372Z,1.00
2022-08-11T11:52:34.614Z,0.85
2022-08-11T11:55:02.682Z,1.00
2022-08-11T11:57:58.727Z,1.17
2022-08-11T12:00:46.942Z,0.90
2022-08-11T12:03:13.997Z,0.98
2022-08-11T12:05:42.352Z,0.90
2022-08-11T12:08:15.211Z,0.90
2022-08-11T12:10:48.138Z,1.05
2022-08-11T12:13:35.742Z,0.63
2022-08-11T12:16:33.683Z,0.77
2022-08-11T12:18:54.318Z,0.60
2022-08-11T12:21:21.827Z,1.00
2022-08-11T12:24:07.819Z,0.90
2022-08-11T12:27:15.152Z,1.20
2022-08-11T12:29:39.973Z,0.60
2022-08-11T12:32:10.165Z,1.25
2022-08-11T12:34:36.764Z,0.68
2022-08-11T12:37:06.861Z,1.05
2022-08-11T12:40:10.751Z,0.70
2022-08-11T12:43:08.308Z,1.10
2022-08-11T12:45:48.701Z,0.70
2022-08-11T12:49:00.674Z,0.70
2022-08-11T12:52:12.371Z,1.02
2022-08-11T12:54:42.211Z,1.00
2022-08-11T12:57:38.004Z,0.65
2022-08-11T13:00:25.541Z,0.60
2022-08-11T13:03:12.802Z,1.00
2022-08-11T13:05:44.579Z,0.70
2022-08-11T13:08:13.916Z,0.50
2022-08-11T13:10:59.959Z,0.80
2022-08-11T13:13:54.661Z,1.00
2022-08-11T13:16:14.838Z,0.70
2022-08-11T13:18:42.974Z,0.82
2022-08-11T13:21:20.797Z,1.15
2022-08-11T13:24:00.439Z,1.00
2022-08-11T13:26:48.099Z,0.90
2022-08-11T13:29:22.135Z,1.42
2022-08-11T13:31:51.497Z,1.30
2022-08-11T13:34:20.757Z,1.50
2022-08-11T13:36:51.929Z,1.02
2022-08-11T13:39:19.463Z,1.00
2022-08-11T13:41:48.519Z,0.80
2022-08-11T13:44:23.114Z,1.10
2022-08-11T13:46:53.466Z,1.17
2022-08-11T13:49:21.732Z,1.13
2022-08-11T13:51:49.524Z,0.60
2022-08-11T13:54:38.325Z,0.77
2022-08-11T13:57:08.256Z,0.70
2022-08-11T13:59:43.990Z,0.60
2022-08-11T14:02:28.814Z,0.80
2022-08-11T14:05:09.854Z,1.25
2022-08-11T14:07:45.493Z,0.90
2022-08-11T14:10:16.093Z,0.93
2022-08-11T14:13:06.345Z,1.40
2022-08-11T14:15:34.940Z,1.67
2022-08-11T14:18:06.428Z,1.50
2022-08-11T14:20:54.850Z,0.65
2022-08-11T14:23:28.646Z,1.13
2022-08-11T14:26:15.186Z,1.63
2022-08-11T14:28:44.972Z,1.00
2022-08-11T14:31:14.982Z,0.98
2022-08-11T14:34:00.850Z,1.10
2022-08-11T14:36:35.817Z,1.00
2022-08-11T14:39:08.417Z,1.02
2022-08-11T14:42:10.513Z,1.25
2022-08-11T14:45:01.183Z,0.80
2022-08-11T14:47:29.771Z,0.73
2022-08-11T14:50:09.550Z,1.00
2022-08-11T14:52:43.310Z,0.93
2022-08-11T14:55:30.746Z,1.60
2022-08-11T14:57:58.393Z,1.05
2022-08-11T15:00:25.776Z,1.13
2022-08-11T15:03:13.192Z,1.27
2022-08-11T15:05:55.982Z,1.67
2022-08-11T15:11:33.338Z,1.30
2022-08-11T15:14:02.591Z,1.20
2022-08-11T15:16:48.353Z,1.00
2022-08-11T15:19:16.759Z,0.73
2022-08-11T15:22:02.029Z,1.10
2022-08-11T15:24:30.819Z,0.68
2022-08-11T15:27:19.588Z,1.48
2022-08-11T15:30:05.903Z,1.20
2022-08-11T15:32:52.388Z,1.30
2022-08-11T15:35:39.120Z,1.17
2022-08-11T15:38:11.619Z,1.30
2022-08-11T15:40:58.922Z,2.15
2022-08-11T15:43:49.979Z,1.30
2022-08-11T15:46:20.807Z,2.45
2022-08-11T15:49:12.455Z,2.67
2022-08-11T15:51:50.802Z,3.65
2022-08-11T15:54:19.591Z,7.15
2022-08-11T15:56:50.753Z,7.57
2022-08-11T15:59:42.315Z,3.70
2022-08-11T16:02:28.139Z,4.28
2022-08-11T16:04:56.703Z,4.93
2022-08-11T16:07:27.756Z,3.83
2022-08-11T16:10:05.740Z,3.03
2022-08-11T16:12:37.350Z,5.80
2022-08-11T16:15:26.379Z,3.15
2022-08-11T16:17:59.330Z,2.42
2022-08-11T16:20:28.233Z,1.98
2022-08-11T16:23:02.556Z,1.52
2022-08-11T16:27:04.133Z,1.85
2022-08-11T16:28:20.732Z,1.27
2022-08-11T16:30:48.564Z,1.20
2022-08-11T16:33:48.331Z,1.77
2022-08-11T16:36:22.798Z,1.25
2022-08-11T16:38:50.491Z,0.77
2022-08-11T16:41:42.119Z,0.77
2022-08-11T16:44:37.427Z,1.13
2022-08-11T16:47:13.086Z,1.10
2022-08-11T16:49:53.228Z,0.93
2022-08-11T16:52:22.655Z,0.77
2022-08-11T16:54:49.611Z,0.80
2022-08-11T16:57:45.644Z,0.70
2022-08-11T17:00:17.235Z,1.13
2022-08-11T17:03:10.469Z,1.10
2022-08-11T17:06:02.897Z,1.10
2022-08-11T17:08:57.438Z,0.77
2022-08-11T17:11:46.628Z,0.60
2022-08-11T17:14:16.301Z,0.80
2022-08-11T17:16:49.146Z,0.80
2022-08-11T17:20:40.257Z,1.10
2022-08-11T17:22:32.087Z,1.00
2022-08-11T17:25:00.056Z,0.57
2022-08-11T17:27:28.244Z,0.85
2022-08-11T17:29:58.525Z,0.90
2022-08-11T17:32:56.401Z,1.00
2022-08-11T17:35:31.173Z,0.85
2022-08-11T17:38:15.805Z,0.70
2022-08-11T17:41:05.153Z,0.77
2022-08-11T17:43:51.083Z,1.00
2022-08-11T17:46:37.345Z,0.80
2022-08-11T17:49:09.526Z,1.00
2022-08-11T17:51:56.824Z,1.17
2022-08-11T17:54:43.039Z,0.60
2022-08-11T17:57:47.795Z,0.90
2022-08-11T18:03:02.519Z,0.75
2022-08-11T18:05:31.145Z,0.77
2022-08-11T18:08:21.470Z,0.80
2022-08-11T18:11:07.859Z,0.90
2022-08-11T18:13:55.636Z,0.90
2022-08-11T18:16:41.313Z,0.90
2022-08-11T18:19:27.252Z,0.80
2022-08-11T18:22:28.138Z,0.68
2022-08-11T18:25:16.996Z,0.77
2022-08-11T18:28:07.323Z,1.13
2022-08-11T18:31:03.975Z,2.28
2022-08-11T18:34:06.934Z,1.33
2022-08-11T18:36:59.274Z,1.73
2022-08-11T18:39:54.595Z,1.08
2022-08-11T18:42:43.313Z,0.98
2022-08-11T18:45:33.051Z,1.02
2022-08-11T18:48:34.213Z,0.88
2022-08-11T18:51:29.685Z,0.93
2022-08-11T18:54:23.236Z,1.00
2022-08-11T18:57:08.710Z,0.77
2022-08-11T18:59:59.104Z,0.60
2022-08-11T19:02:49.546Z,0.90
2022-08-11T19:06:32.115Z,1.05
2022-08-11T19:08:47.219Z,1.42
2022-08-11T19:11:33.766Z,0.80
2022-08-11T19:14:21.947Z,0.77
2022-08-11T19:17:09.509Z,0.70
2022-08-11T19:19:56.401Z,1.17
2022-08-11T19:22:43.267Z,1.17
2022-08-11T19:25:30.595Z,0.50
2022-08-11T19:28:16.886Z,0.82
2022-08-11T19:31:02.571Z,0.98
2022-08-11T19:34:02.982Z,0.70
2022-08-11T19:36:56.399Z,1.00
2022-08-11T19:39:42.296Z,0.88
2022-08-11T19:42:28.414Z,0.50
2022-08-11T19:45:15.372Z,0.70
2022-08-11T19:48:30.191Z,0.73
2022-08-11T19:51:09.549Z,0.88
2022-08-11T19:53:56.294Z,0.77
2022-08-11T19:56:42.289Z,0.70
2022-08-11T19:59:28.714Z,0.50
2022-08-11T20:02:14.791Z,0.75
2022-08-11T20:05:01.475Z,0.93
2022-08-11T20:07:49.064Z,0.90
2022-08-11T20:10:38.511Z,0.50
2022-08-11T20:13:28.264Z,1.00
2022-08-11T20:16:14.501Z,0.82
2022-08-11T20:19:02.093Z,0.90
2022-08-11T20:21:47.752Z,0.60
2022-08-11T20:24:34.518Z,0.80
2022-08-11T20:27:24.875Z,1.00
2022-08-11T20:30:12.654Z,0.68
2022-08-11T20:32:59.542Z,0.60
2022-08-11T20:35:45.441Z,0.60
2022-08-11T20:38:33.998Z,0.75
2022-08-11T20:41:21.772Z,0.73
2022-08-11T20:44:09.536Z,0.77
2022-08-11T20:46:57.407Z,0.70
2022-08-11T20:49:50.552Z,0.70
2022-08-11T20:52:42.033Z,1.15
2022-08-11T20:55:51.599Z,0.98
2022-08-11T20:59:13.460Z,0.95
2022-08-11T21:01:41.555Z,1.02
2022-08-11T21:04:27.365Z,0.85
2022-08-11T21:07:23.605Z,0.90
2022-08-11T21:10:23.157Z,0.63
2022-08-11T21:13:26.436Z,0.82
2022-08-11T21:16:26.260Z,1.25
2022-08-11T21:20:00.564Z,0.60
2022-08-11T21:22:59.190Z,0.75
2022-08-11T21:25:55.797Z,0.75
2022-08-11T21:28:45.806Z,0.80
2022-08-11T21:31:31.762Z,1.10
2022-08-11T21:34:18.306Z,0.88
2022-08-11T21:37:04.125Z,0.55
2022-08-11T21:39:50.241Z,1.60
2022-08-11T21:42:38.340Z,1.00
2022-08-11T21:45:26.120Z,0.80
2022-08-11T21:48:14.567Z,0.80
2022-08-11T21:50:59.915Z,0.80
2022-08-11T21:53:45.731Z,1.10
2022-08-11T21:56:33.124Z,0.70
2022-08-11T21:59:19.992Z,0.90
2022-08-11T22:02:11.946Z,0.70
2022-08-11T22:04:58.698Z,0.88
2022-08-11T22:07:44.094Z,0.98
2022-08-11T22:10:40.617Z,0.90
2022-08-11T22:13:27.331Z,0.90
2022-08-11T22:16:12.993Z,0.88
2022-08-11T22:18:58.870Z,1.17
2022-08-11T22:22:03.989Z,0.68
2022-08-11T22:24:52.918Z,1.40
2022-08-11T22:27:39.393Z,0.80
2022-08-11T22:30:26.193Z,0.70
2022-08-11T22:33:12.104Z,0.77
2022-08-11T22:36:02.132Z,0.98
2022-08-11T22:38:47.991Z,0.60
2022-08-11T22:41:32.687Z,1.13
2022-08-11T22:44:18.366Z,1.10
2022-08-11T22:47:04.109Z,0.50
2022-08-11T22:49:58.219Z,0.88
2022-08-11T22:52:46.026Z,0.70
2022-08-11T22:55:31.945Z,0.38
2022-08-11T22:58:17.845Z,0.50
2022-08-11T23:01:03.294Z,0.88
2022-08-11T23:03:50.858Z,0.73
2022-08-11T23:06:37.638Z,0.80
2022-08-11T23:09:24.140Z,0.43
2022-08-11T23:12:10.605Z,0.77
2022-08-11T23:14:58.311Z,0.70
2022-08-11T23:17:45.014Z,0.77
2022-08-11T23:20:41.670Z,0.60
2022-08-11T23:23:39.152Z,0.70
2022-08-11T23:26:25.522Z,0.70
2022-08-11T23:29:12.579Z,0.47
2022-08-11T23:31:58.553Z,0.70
2022-08-11T23:35:36.867Z,0.75
2022-08-11T23:37:55.357Z,0.50
2022-08-11T23:40:44.852Z,0.77
2022-08-11T23:43:41.456Z,1.15
2022-08-11T23:46:26.712Z,0.70
2022-08-11T23:49:15.563Z,0.70
2022-08-11T23:52:02.270Z,0.55
2022-08-11T23:54:48.088Z,0.70
2022-08-11T23:57:33.044Z,0.50
